createdAt,value
2023-04-12T00:02:01.489Z,99569.52
2023-04-12T00:04:30.482Z,99566.56
2023-04-12T00:07:01.274Z,99567.28
2023-04-12T00:09:32.506Z,99562.70
2023-04-12T00:12:02.007Z,99565.48
2023-04-12T00:14:30.606Z,99560.85
2023-04-12T00:17:02.051Z,99560.80
2023-04-12T00:19:31.353Z,99560.67
2023-04-12T00:22:05.214Z,99559.65
2023-04-12T00:24:34.077Z,99560.17
2023-04-12T00:27:02.741Z,99558.42
2023-04-12T00:29:37.367Z,99558.23
2023-04-12T00:32:07.075Z,99554.17
2023-04-12T00:34:35.452Z,99552.80
2023-04-12T00:37:04.051Z,99550.04
2023-04-12T00:39:33.247Z,99550.14
2023-04-12T00:42:09.907Z,99547.02
2023-04-12T00:44:38.482Z,99546.01
2023-04-12T00:47:08.350Z,99543.01
2023-04-12T00:49:38.317Z,99549.23
2023-04-12T00:52:11.503Z,99536.27
2023-04-12T00:54:42.444Z,99538.11
2023-04-12T00:57:13.899Z,99535.52
2023-04-12T00:59:42.895Z,99533.96
2023-04-12T01:02:11.521Z,99530.66
2023-04-12T01:04:44.374Z,99525.41
2023-04-12T01:07:24.097Z,99524.56
2023-04-12T01:10:29.052Z,99524.67
2023-04-12T01:13:12.055Z,99523.89
2023-04-12T01:15:45.273Z,99519.00
2023-04-12T01:18:21.206Z,99514.61
2023-04-12T01:20:57.894Z,99510.45
2023-04-12T01:24:01.801Z,99504.51
2023-04-12T01:26:41.943Z,99499.61
2023-04-12T01:29:16.459Z,99497.73
2023-04-12T01:31:53.728Z,99498.29
2023-04-12T01:34:25.608Z,99490.53
2023-04-12T01:36:53.954Z,99485.95
2023-04-12T01:39:23.236Z,99481.21
2023-04-12T01:41:51.875Z,99477.91
2023-04-12T01:44:20.963Z,99476.71
2023-04-12T01:46:49.560Z,99478.52
2023-04-12T01:49:18.542Z,99479.27
2023-04-12T01:51:52.345Z,99471.17
2023-04-12T01:54:26.457Z,99473.32
2023-04-12T01:57:02.151Z,99476.73
2023-04-12T01:59:40.665Z,99470.11
2023-04-12T02:02:13.014Z,99469.09
2023-04-12T02:04:42.914Z,99466.13
2023-04-12T02:07:11.902Z,99461.40
2023-04-12T02:09:52.267Z,99457.69
2023-04-12T02:12:23.412Z,99456.98
2023-04-12T02:14:52.501Z,99454.50
2023-04-12T02:17:25.384Z,99454.31
2023-04-12T02:19:54.274Z,99446.59
2023-04-12T02:22:22.755Z,99445.79
2023-04-12T02:24:52.366Z,99444.10
2023-04-12T02:27:22.136Z,99440.60
2023-04-12T02:29:50.861Z,99437.96
2023-04-12T02:32:19.579Z,99432.85
2023-04-12T02:34:51.628Z,99435.50
2023-04-12T02:37:29.669Z,99429.85
2023-04-12T02:39:59.287Z,99430.90
2023-04-12T02:42:28.980Z,99431.23
2023-04-12T02:44:57.863Z,99431.24
2023-04-12T02:47:29.430Z,99426.70
2023-04-12T02:49:59.018Z,99427.45
2023-04-12T02:52:30.141Z,99432.77
2023-04-12T02:55:07.639Z,99422.55
2023-04-12T02:57:36.098Z,99424.47
2023-04-12T03:00:12.435Z,99421.98
2023-04-12T03:02:55.563Z,99420.88
2023-04-12T03:05:27.887Z,99420.89
2023-04-12T03:07:57.057Z,99419.11
2023-04-12T03:10:32.095Z,99416.46
2023-04-12T03:13:05.293Z,99416.98
2023-04-12T03:15:40.563Z,99415.27
2023-04-12T03:18:10.072Z,99419.52
2023-04-12T03:20:50.697Z,99416.58
2023-04-12T03:23:21.156Z,99417.33
2023-04-12T03:25:53.693Z,99417.13
2023-04-12T03:28:43.470Z,99413.23
2023-04-12T03:31:13.002Z,99414.10
2023-04-12T03:33:43.649Z,99417.29
2023-04-12T03:36:24.209Z,99420.46
2023-04-12T03:39:00.229Z,99421.16
2023-04-12T03:41:30.161Z,99423.80
2023-04-12T03:44:00.932Z,99424.35
2023-04-12T03:46:30.141Z,99420.68
2023-04-12T03:49:00.821Z,99420.88
2023-04-12T03:51:31.009Z,99421.41
2023-04-12T03:54:04.939Z,99419.84
2023-04-12T03:57:11.677Z,99422.81
2023-04-12T03:59:46.128Z,99424.40
2023-04-12T04:02:14.726Z,99425.95
2023-04-12T04:04:47.002Z,99424.86
2023-04-12T04:07:19.314Z,99430.45
2023-04-12T04:09:48.053Z,99429.89
2023-04-12T04:12:16.753Z,99427.73
2023-04-12T04:14:47.327Z,99428.79
2023-04-12T04:17:23.236Z,99430.70
2023-04-12T04:19:55.367Z,99431.19
2023-04-12T04:22:23.843Z,99433.61
2023-04-12T04:24:53.208Z,99431.80
2023-04-12T04:27:22.326Z,99436.02
2023-04-12T04:29:52.542Z,99429.81
2023-04-12T04:32:20.864Z,99431.38
2023-04-12T04:34:49.446Z,99429.95
2023-04-12T04:37:19.029Z,99431.35
2023-04-12T04:39:55.733Z,99430.79
2023-04-12T04:42:24.797Z,99426.71
2023-04-12T04:45:12.972Z,99430.18
2023-04-12T04:47:42.146Z,99426.08
2023-04-12T04:50:11.480Z,99427.98
2023-04-12T04:52:41.259Z,99427.43
2023-04-12T04:55:13.277Z,99433.56
2023-04-12T04:57:48.170Z,99425.08
2023-04-12T05:00:18.557Z,99426.65
2023-04-12T05:02:52.144Z,99428.05
2023-04-12T05:05:29.344Z,99429.95
2023-04-12T05:08:05.724Z,99428.64
2023-04-12T05:10:39.548Z,99430.93
2023-04-12T05:13:10.141Z,99430.04
2023-04-12T05:15:40.696Z,99433.20
2023-04-12T05:18:09.165Z,99430.01
2023-04-12T05:20:38.848Z,99424.50
2023-04-12T05:23:09.017Z,99424.31
2023-04-12T05:25:47.186Z,99426.61
2023-04-12T05:28:17.546Z,99425.49
2023-04-12T05:30:46.643Z,99425.98
2023-04-12T05:33:17.885Z,99424.20
2023-04-12T05:35:49.280Z,99419.05
2023-04-12T05:38:17.450Z,99420.06
2023-04-12T05:40:50.061Z,99414.37
2023-04-12T05:43:19.646Z,99416.46
2023-04-12T05:45:51.415Z,99415.02
2023-04-12T05:48:21.816Z,99411.81
2023-04-12T05:50:53.595Z,99406.48
2023-04-12T05:53:23.410Z,99403.95
2023-04-12T05:55:52.110Z,99403.90
2023-04-12T05:58:20.429Z,99402.94
2023-04-12T06:00:49.782Z,99402.33
2023-04-12T06:03:20.282Z,99401.77
2023-04-12T06:05:52.779Z,99399.81
2023-04-12T06:08:21.687Z,99398.79
2023-04-12T06:10:50.360Z,99399.16
2023-04-12T06:13:24.170Z,99401.11
2023-04-12T06:15:52.570Z,99399.55
2023-04-12T06:18:21.209Z,99400.30
2023-04-12T06:20:51.578Z,99404.08
2023-04-12T06:23:23.527Z,99396.23
2023-04-12T06:25:53.520Z,99396.27
2023-04-12T06:28:22.217Z,99400.39
2023-04-12T06:30:52.444Z,99400.02
2023-04-12T06:33:23.691Z,99402.87
2023-04-12T06:35:53.022Z,99393.55
2023-04-12T06:38:21.478Z,99398.71
2023-04-12T06:40:49.886Z,99399.95
2023-04-12T06:43:22.833Z,99395.16
2023-04-12T06:45:51.103Z,99399.90
2023-04-12T06:48:20.838Z,99399.34
2023-04-12T06:50:49.131Z,99401.42
2023-04-12T06:53:23.076Z,99396.79
2023-04-12T06:55:54.093Z,99398.17
2023-04-12T06:58:22.443Z,99393.52
2023-04-12T07:00:53.690Z,99396.86
2023-04-12T07:03:24.820Z,99402.70
2023-04-12T07:05:55.876Z,99394.40
2023-04-12T07:08:24.259Z,99402.87
2023-04-12T07:10:55.823Z,99399.55
2023-04-12T07:13:25.273Z,99403.79
2023-04-12T07:16:01.356Z,99399.91
2023-04-12T07:18:32.615Z,99396.04
2023-04-12T07:21:06.402Z,99396.73
2023-04-12T07:23:35.211Z,99393.54
2023-04-12T07:26:03.565Z,99403.05
2023-04-12T07:28:35.995Z,99400.41
2023-04-12T07:31:06.399Z,99394.56
2023-04-12T07:33:36.658Z,99404.25
2023-04-12T07:36:06.051Z,99401.27
2023-04-12T07:38:36.065Z,99402.52
2023-04-12T07:41:05.509Z,99399.02
2023-04-12T07:43:34.337Z,99404.48
2023-04-12T07:46:07.824Z,99403.27
2023-04-12T07:48:39.078Z,99404.30
2023-04-12T07:51:07.824Z,99405.32
2023-04-12T07:53:36.075Z,99403.00
2023-04-12T07:56:07.332Z,99394.17
2023-04-12T07:58:35.734Z,99401.19
2023-04-12T08:01:12.366Z,99401.00
2023-04-12T08:03:41.574Z,99399.73
2023-04-12T08:06:10.359Z,99398.45
2023-04-12T08:08:39.318Z,99400.72
2023-04-12T08:11:07.800Z,99402.46
2023-04-12T08:13:36.150Z,99399.84
2023-04-12T08:16:05.416Z,99391.20
2023-04-12T08:18:34.735Z,99395.05
2023-04-12T08:21:03.361Z,99389.86
2023-04-12T08:23:40.208Z,99387.31
2023-04-12T08:26:09.658Z,99389.93
2023-04-12T08:28:39.874Z,99385.98
2023-04-12T08:31:08.826Z,99395.81
2023-04-12T08:33:37.863Z,99393.84
2023-04-12T08:36:06.641Z,99390.10
2023-04-12T08:38:45.745Z,99386.95
2023-04-12T08:41:15.348Z,99386.44
2023-04-12T08:43:47.740Z,99380.79
2023-04-12T08:46:17.800Z,99387.13
2023-04-12T08:48:47.166Z,99381.30
2023-04-12T08:51:19.707Z,99382.00
2023-04-12T08:53:48.585Z,99384.27
2023-04-12T08:56:22.180Z,99383.70
2023-04-12T08:58:50.936Z,99386.70
2023-04-12T09:01:22.032Z,99384.95
2023-04-12T09:03:51.877Z,99382.10
2023-04-12T09:06:20.830Z,99385.73
2023-04-12T09:08:56.571Z,99383.08
2023-04-12T09:11:31.655Z,99382.17
2023-04-12T09:14:01.563Z,99379.50
2023-04-12T09:17:20.369Z,99379.63
2023-04-12T09:19:55.186Z,99377.79
2023-04-12T09:22:38.404Z,99381.61
2023-04-12T09:25:07.676Z,99381.59
2023-04-12T09:27:47.424Z,99380.84
2023-04-12T09:30:17.440Z,99377.98
2023-04-12T09:33:13.292Z,99371.00
2023-04-12T09:35:43.208Z,99375.20
2023-04-12T09:38:12.161Z,99368.66
2023-04-12T09:40:41.680Z,99370.93
2023-04-12T09:43:10.821Z,99360.29
2023-04-12T09:45:39.673Z,99355.27
2023-04-12T09:48:08.450Z,99365.77
2023-04-12T09:50:37.699Z,99373.40
2023-04-12T09:53:16.082Z,99367.44
2023-04-12T09:55:45.848Z,99358.23
2023-04-12T09:58:14.804Z,99360.48
2023-04-12T10:00:44.549Z,99361.17
2023-04-12T10:03:14.227Z,99347.75
2023-04-12T10:05:45.460Z,99353.79
2023-04-12T10:08:17.943Z,99348.82
2023-04-12T10:10:49.465Z,99346.66
2023-04-12T10:13:23.471Z,99344.66
2023-04-12T10:16:00.544Z,99351.55
2023-04-12T10:18:32.937Z,99345.15
2023-04-12T10:21:05.453Z,99344.95
2023-04-12T10:23:45.212Z,99345.29
2023-04-12T10:26:16.645Z,99338.63
2023-04-12T10:28:52.901Z,99336.70
2023-04-12T10:31:33.562Z,99343.02
2023-04-12T10:34:08.583Z,99345.33
2023-04-12T10:36:53.594Z,99353.00
2023-04-12T10:39:56.633Z,99347.27
2023-04-12T10:42:28.898Z,99344.32
2023-04-12T10:45:44.603Z,99344.14
2023-04-12T10:48:38.537Z,99340.21
2023-04-12T10:51:30.516Z,99334.36
2023-04-12T10:54:32.554Z,99333.22
2023-04-12T10:57:05.631Z,99329.67
2023-04-12T10:59:52.303Z,99323.75
2023-04-12T11:02:25.452Z,99317.54
2023-04-12T11:12:31.338Z,99315.16
2023-04-12T11:15:01.416Z,99321.79
2023-04-12T11:17:40.785Z,99316.34
2023-04-12T11:20:15.724Z,99317.05
2023-04-12T11:22:44.648Z,99316.02
2023-04-12T11:25:17.037Z,99319.95
2023-04-12T11:27:53.081Z,99327.96
2023-04-12T11:30:23.841Z,99334.40
2023-04-12T11:32:57.335Z,99329.00
2023-04-12T11:35:30.640Z,99323.55
2023-04-12T11:37:59.781Z,99320.23
2023-04-12T11:40:29.174Z,99322.35
2023-04-12T11:42:58.172Z,99321.08
2023-04-12T11:45:29.720Z,99326.02
2023-04-12T11:47:58.482Z,99328.91
2023-04-12T11:50:31.547Z,99331.06
2023-04-12T11:53:14.420Z,99324.61
2023-04-12T11:55:47.818Z,99322.39
2023-04-12T11:58:17.536Z,99323.84
2023-04-12T12:00:46.408Z,99322.77
2023-04-12T12:03:15.269Z,99322.27
2023-04-12T12:05:45.697Z,99324.31
2023-04-12T12:08:16.146Z,99313.89
2023-04-12T12:11:06.485Z,99318.05
2023-04-12T12:13:53.226Z,99318.00
2023-04-12T12:16:29.594Z,99319.90
2023-04-12T12:19:00.053Z,99309.60
2023-04-12T12:21:28.953Z,99307.23
2023-04-12T12:23:58.942Z,99299.19
2023-04-12T12:26:31.061Z,99297.54
2023-04-12T12:29:00.961Z,99299.63
2023-04-12T12:31:33.956Z,99306.33
2023-04-12T12:34:08.327Z,99301.80
2023-04-12T12:36:39.281Z,99301.42
2023-04-12T12:39:10.832Z,99308.28
2023-04-12T12:41:40.199Z,99300.13
2023-04-12T12:44:16.052Z,99296.80
2023-04-12T12:46:55.284Z,99295.05
2023-04-12T12:49:26.876Z,99300.58
2023-04-12T12:51:56.489Z,99299.17
2023-04-12T12:54:38.772Z,99297.78
2023-04-12T12:57:09.824Z,99298.11
2023-04-12T12:59:41.590Z,99290.08
2023-04-12T13:02:10.543Z,99288.77
2023-04-12T13:04:39.551Z,99290.05
2023-04-12T13:07:12.363Z,99291.17
2023-04-12T13:09:41.367Z,99287.59
2023-04-12T13:12:15.935Z,99286.70
2023-04-12T13:14:48.735Z,99284.44
2023-04-12T13:17:18.252Z,99279.85
2023-04-12T13:19:48.912Z,99287.45
2023-04-12T13:22:18.947Z,99286.18
2023-04-12T13:24:47.392Z,99283.52
2023-04-12T13:27:22.284Z,99285.59
2023-04-12T13:29:51.720Z,99287.40
2023-04-12T13:32:20.615Z,99288.63
2023-04-12T13:34:49.804Z,99286.16
2023-04-12T13:37:18.286Z,99286.31
2023-04-12T13:39:47.188Z,99294.42
2023-04-12T13:42:17.611Z,99285.54
2023-04-12T13:44:50.025Z,99278.53
2023-04-12T13:47:18.989Z,99274.73
2023-04-12T13:49:49.199Z,99267.58
2023-04-12T13:52:18.099Z,99268.53
2023-04-12T13:54:50.667Z,99272.85
2023-04-12T13:57:19.578Z,99270.61
2023-04-12T13:59:51.411Z,99273.45
2023-04-12T14:02:20.788Z,99280.43
2023-04-12T14:04:53.560Z,99281.27
2023-04-12T14:07:22.175Z,99286.19
2023-04-12T14:09:51.615Z,99284.61
2023-04-12T14:12:22.007Z,99289.39
2023-04-12T14:14:50.936Z,99291.80
2023-04-12T14:17:20.767Z,99287.69
2023-04-12T14:19:51.543Z,99291.23
2023-04-12T14:22:20.375Z,99283.23
2023-04-12T14:24:49.737Z,99285.64
2023-04-12T14:27:18.536Z,99292.86
2023-04-12T14:29:48.047Z,99303.48
2023-04-12T14:32:21.625Z,99290.73
2023-04-12T14:34:50.621Z,99299.25
2023-04-12T14:37:19.414Z,99294.52
2023-04-12T14:39:48.295Z,99307.27
2023-04-12T14:42:17.116Z,99320.05
2023-04-12T14:44:50.522Z,99321.46
2023-04-12T14:47:20.242Z,99312.65
2023-04-12T14:49:49.092Z,99299.07
2023-04-12T14:52:24.939Z,99284.23
2023-04-12T14:54:54.349Z,99275.24
2023-04-12T14:57:23.325Z,99281.68
2023-04-12T14:59:52.015Z,99282.92
2023-04-12T15:02:23.956Z,99276.19
2023-04-12T15:04:53.789Z,99272.04
2023-04-12T15:07:22.783Z,99277.16
2023-04-12T15:09:53.214Z,99289.84
2023-04-12T15:12:22.068Z,99310.38
2023-04-12T15:14:57.900Z,99309.18
2023-04-12T15:17:31.489Z,99306.96
2023-04-12T15:20:00.648Z,99304.70
2023-04-12T15:22:38.838Z,99305.43
2023-04-12T15:25:10.058Z,99304.53
2023-04-12T15:27:39.409Z,99298.55
2023-04-12T15:30:11.254Z,99296.42
2023-04-12T15:32:42.676Z,99295.59
2023-04-12T15:37:44.603Z,99282.63
2023-04-12T15:40:18.725Z,99280.75
2023-04-12T15:42:48.486Z,99274.08
2023-04-12T15:45:26.288Z,99278.67
2023-04-12T15:47:56.116Z,99276.72
2023-04-12T15:50:24.834Z,99272.01
2023-04-12T15:52:56.375Z,99272.22
2023-04-12T15:55:25.169Z,99276.98
2023-04-12T15:57:54.485Z,99291.48
2023-04-12T16:00:26.532Z,99300.27
2023-04-12T16:02:57.761Z,99299.26
2023-04-12T16:05:27.798Z,99290.42
2023-04-12T16:08:02.122Z,99295.04
2023-04-12T16:10:35.327Z,99305.09
2023-04-12T16:13:05.419Z,99310.93
2023-04-12T16:15:34.933Z,99303.33
2023-04-12T16:18:10.011Z,99305.80
2023-04-12T16:20:41.224Z,99305.10
2023-04-12T16:23:11.222Z,99302.62
2023-04-12T16:25:46.514Z,99302.27
2023-04-12T16:28:18.340Z,99303.50
2023-04-12T16:30:50.542Z,99298.73
2023-04-12T16:33:20.613Z,99289.40
2023-04-12T16:35:50.212Z,99285.14
2023-04-12T16:38:20.547Z,99290.48
2023-04-12T16:40:49.596Z,99289.99
2023-04-12T16:43:29.770Z,99288.27
2023-04-12T16:46:07.973Z,99283.52
2023-04-12T16:48:42.916Z,99288.82
2023-04-12T16:51:11.952Z,99300.09
2023-04-12T16:53:44.497Z,99305.02
2023-04-12T16:56:14.011Z,99301.98
2023-04-12T16:58:43.101Z,99297.92
2023-04-12T17:01:17.106Z,99295.33
2023-04-12T17:03:47.777Z,99297.28
2023-04-12T17:06:19.717Z,99298.30
2023-04-12T17:09:01.232Z,99298.30
2023-04-12T17:11:34.198Z,99296.69
2023-04-12T17:14:03.332Z,99299.35
2023-04-12T17:16:36.133Z,99298.40
2023-04-12T17:19:07.505Z,99300.00
2023-04-12T17:21:41.812Z,99294.20
2023-04-12T17:24:12.453Z,99295.30
2023-04-12T17:26:41.868Z,99290.89
2023-04-12T17:29:11.724Z,99289.64
2023-04-12T17:31:41.378Z,99294.55
2023-04-12T17:34:10.274Z,99298.08
2023-04-12T17:36:40.384Z,99291.16
2023-04-12T17:39:09.374Z,99287.95
2023-04-12T17:41:40.071Z,99287.54
2023-04-12T17:44:09.228Z,99281.68
2023-04-12T17:46:38.507Z,99284.29
2023-04-12T17:49:09.892Z,99292.01
2023-04-12T17:51:38.738Z,99290.97
2023-04-12T17:54:08.570Z,99292.09
2023-04-12T17:56:38.478Z,99292.34
2023-04-12T17:59:10.949Z,99293.26
2023-04-12T18:01:40.618Z,99293.44
2023-04-12T18:04:10.522Z,99292.20
2023-04-12T18:06:40.490Z,99292.71
2023-04-12T18:09:17.467Z,99298.89
2023-04-12T18:11:47.246Z,99304.53
2023-04-12T18:14:16.276Z,99304.47
2023-04-12T18:16:48.679Z,99299.49
2023-04-12T18:19:19.586Z,99300.89
2023-04-12T18:21:48.827Z,99300.33
2023-04-12T18:24:18.505Z,99299.25
2023-04-12T18:26:48.201Z,99300.27
2023-04-12T18:29:18.206Z,99299.73
2023-04-12T18:31:47.347Z,99301.45
2023-04-12T18:34:19.332Z,99298.52
2023-04-12T18:36:48.367Z,99294.67
2023-04-12T18:39:17.630Z,99295.21
2023-04-12T18:41:47.597Z,99287.60
2023-04-12T18:44:20.258Z,99289.02
2023-04-12T18:46:49.304Z,99288.27
2023-04-12T18:49:20.334Z,99292.63
2023-04-12T18:51:49.901Z,99291.51
2023-04-12T18:54:18.286Z,99283.70
2023-04-12T18:56:50.260Z,99274.67
2023-04-12T18:59:19.438Z,99267.10
2023-04-12T19:01:49.615Z,99269.25
2023-04-12T19:04:19.023Z,99275.24
2023-04-12T19:06:48.479Z,99265.14
2023-04-12T19:09:17.348Z,99263.19
2023-04-12T19:11:46.567Z,99260.04
2023-04-12T19:14:16.361Z,99257.42
2023-04-12T19:16:45.526Z,99256.71
2023-04-12T19:19:15.379Z,99258.29
2023-04-12T19:21:43.911Z,99258.80
2023-04-12T19:24:12.636Z,99250.10
2023-04-12T19:26:47.422Z,99248.89
2023-04-12T19:29:16.862Z,99242.60
2023-04-12T19:31:47.903Z,99235.94
2023-04-12T19:34:18.165Z,99236.15
2023-04-12T19:36:47.022Z,99230.02
2023-04-12T19:39:18.501Z,99235.84
2023-04-12T19:41:49.457Z,99239.48
2023-04-12T19:44:18.502Z,99235.75
2023-04-12T19:46:48.474Z,99234.50
2023-04-12T19:49:16.900Z,99235.76
2023-04-12T19:51:46.521Z,99231.86
2023-04-12T19:54:14.893Z,99228.84
2023-04-12T19:56:45.901Z,99225.75
2023-04-12T19:59:15.455Z,99228.51
2023-04-12T20:01:50.602Z,99233.65
2023-04-12T20:04:20.891Z,99229.63
2023-04-12T20:06:50.707Z,99232.14
2023-04-12T20:09:22.478Z,99231.80
2023-04-12T20:11:51.361Z,99230.02
2023-04-12T20:14:25.514Z,99231.94
2023-04-12T20:16:58.404Z,99229.94
2023-04-12T20:19:27.361Z,99233.11
2023-04-12T20:22:01.984Z,99235.96
2023-04-12T20:24:30.548Z,99237.41
2023-04-12T20:26:58.929Z,99235.66
2023-04-12T20:29:30.382Z,99235.48
2023-04-12T20:31:58.862Z,99233.18
2023-04-12T20:34:28.189Z,99226.95
2023-04-12T20:36:58.100Z,99228.15
2023-04-12T20:39:26.350Z,99223.52
2023-04-12T20:42:01.147Z,99223.66
2023-04-12T20:44:30.289Z,99227.40
2023-04-12T20:47:02.849Z,99228.14
2023-04-12T20:49:32.042Z,99231.69
2023-04-12T20:52:00.685Z,99237.71
2023-04-12T20:54:34.336Z,99238.56
2023-04-12T20:57:04.599Z,99231.29
2023-04-12T20:59:36.719Z,99236.37
2023-04-12T21:02:06.338Z,99232.45
2023-04-12T21:04:36.553Z,99239.18
2023-04-12T21:07:07.900Z,99241.89
2023-04-12T21:09:38.017Z,99239.96
2023-04-12T21:12:08.680Z,99237.50
2023-04-12T21:14:50.551Z,99232.88
2023-04-12T21:17:22.415Z,99234.89
2023-04-12T21:19:51.391Z,99227.73
2023-04-12T21:22:25.041Z,99217.79
2023-04-12T21:24:53.711Z,99210.38
2023-04-12T21:27:22.270Z,99209.64
2023-04-12T21:29:52.391Z,99208.37
2023-04-12T21:32:21.337Z,99207.83
2023-04-12T21:34:50.377Z,99209.79
2023-04-12T21:37:18.652Z,99207.83
2023-04-12T21:39:47.745Z,99210.77
2023-04-12T21:42:16.743Z,99217.66
2023-04-12T21:44:45.838Z,99211.81
2023-04-12T21:47:14.326Z,99210.16
2023-04-12T21:49:43.720Z,99209.77
2023-04-12T21:52:12.313Z,99212.54
2023-04-12T21:54:41.503Z,99217.08
2023-04-12T21:57:10.183Z,99215.80
2023-04-12T21:59:41.941Z,99210.31
2023-04-12T22:02:10.528Z,99204.37
2023-04-12T22:04:40.547Z,99202.05
2023-04-12T22:07:12.956Z,99197.00
2023-04-12T22:09:42.656Z,99206.34
2023-04-12T22:12:12.199Z,99208.79
2023-04-12T22:14:58.733Z,99201.30
2023-04-12T22:17:27.532Z,99195.87
2023-04-12T22:19:56.958Z,99204.23
2023-04-12T22:22:26.140Z,99205.73
2023-04-12T22:24:54.409Z,99208.56
2023-04-12T22:27:26.744Z,99219.95
2023-04-12T22:29:55.656Z,99224.42
2023-04-12T22:32:24.502Z,99236.06
2023-04-12T22:35:05.289Z,99243.22
2023-04-12T22:37:41.451Z,99243.93
2023-04-12T22:40:12.569Z,99237.48
2023-04-12T22:42:47.643Z,99239.51
2023-04-12T22:45:17.772Z,99224.79
2023-04-12T22:47:46.502Z,99222.16
2023-04-12T22:50:17.195Z,99228.04
2023-04-12T22:52:50.093Z,99225.33
2023-04-12T22:55:20.056Z,99220.70
2023-04-12T22:57:53.386Z,99226.98
2023-04-12T23:00:23.773Z,99222.39
2023-04-12T23:02:53.983Z,99221.34
2023-04-12T23:05:22.461Z,99219.14
2023-04-12T23:07:53.374Z,99218.37
2023-04-12T23:10:22.668Z,99219.98
2023-04-12T23:12:53.814Z,99216.10
2023-04-12T23:15:24.331Z,99219.32
2023-04-12T23:17:54.948Z,99222.45
2023-04-12T23:20:23.333Z,99229.41
2023-04-12T23:22:57.819Z,99222.77
2023-04-12T23:25:44.986Z,99222.16
2023-04-12T23:28:14.715Z,99223.65
2023-04-12T23:30:48.395Z,99215.63
2023-04-12T23:33:18.642Z,99219.28
2023-04-12T23:35:49.608Z,99222.23
2023-04-12T23:38:26.237Z,99219.45
2023-04-12T23:40:55.528Z,99220.60
2023-04-12T23:43:24.742Z,99217.23
2023-04-12T23:45:55.662Z,99219.67
2023-04-12T23:48:25.475Z,99217.08
2023-04-12T23:50:54.497Z,99212.41
2023-04-12T23:53:23.865Z,99216.40
2023-04-12T23:55:53.675Z,99211.69
2023-04-12T23:58:22.468Z,99210.22
